Terminal Aerodrome Forecast
Issued by NWS

Home | Current Version | Previous Version | Text Only | Print | Product List | Glossary On
Versions: 1 2 3 4 5 6 7 8 9 10 11 12 13 14 15
538
FTUS44 KLIX 100430 AAB
TAFMSY
TAF AMD
KMSY 100430Z 1005/1024 30008KT P6SM FEW250
     FM100900 32007KT P6SM SKC=

USA.gov is the U.S. government's official web portal to all federal, state and local government web resources and services.